createdAt,value
2018-03-27T00:00:17.075Z,56.50
2018-03-27T00:02:44.634Z,56.50
2018-03-27T00:05:15.940Z,56.50
2018-03-27T00:07:43.418Z,56.50
2018-03-27T00:10:11.536Z,56.60
2018-03-27T00:12:39.094Z,56.60
2018-03-27T00:15:06.579Z,56.60
2018-03-27T00:17:34.074Z,56.50
2018-03-27T00:20:01.563Z,56.60
2018-03-27T00:22:29.808Z,56.70
2018-03-27T00:24:57.324Z,56.60
2018-03-27T00:27:37.433Z,56.60
2018-03-27T00:30:16.643Z,56.50
2018-03-27T00:32:56.764Z,56.50
2018-03-27T00:35:36.026Z,56.50
2018-03-27T00:38:15.258Z,56.50
2018-03-27T00:40:43.034Z,56.60
2018-03-27T00:43:11.341Z,56.50
2018-03-27T00:45:38.806Z,56.60
2018-03-27T00:48:06.299Z,56.60
2018-03-27T00:50:33.787Z,56.60
2018-03-27T00:53:01.274Z,56.60
2018-03-27T00:55:28.775Z,56.60
2018-03-27T00:57:56.267Z,56.60
2018-03-27T01:00:23.748Z,56.60
2018-03-27T01:02:52.016Z,56.80
2018-03-27T01:05:19.567Z,56.70
2018-03-27T01:07:47.095Z,56.70
2018-03-27T01:10:14.579Z,56.80
2018-03-27T01:12:42.101Z,56.80
2018-03-27T01:15:09.580Z,56.80
2018-03-27T01:17:37.073Z,56.80
2018-03-27T01:20:05.342Z,56.90
2018-03-27T01:22:33.594Z,57.00
2018-03-27T01:25:01.106Z,57.00
2018-03-27T01:27:28.602Z,57.00
2018-03-27T01:29:56.096Z,57.10
2018-03-27T01:32:23.566Z,57.20
2018-03-27T01:34:51.098Z,57.20
2018-03-27T01:37:18.542Z,57.30
2018-03-27T01:39:46.092Z,57.20
2018-03-27T01:42:13.611Z,57.40
2018-03-27T01:44:41.085Z,57.50
2018-03-27T01:47:09.390Z,57.40
2018-03-27T01:49:36.867Z,57.40
2018-03-27T01:52:04.363Z,57.40
2018-03-27T01:54:31.839Z,57.50
2018-03-27T01:56:59.318Z,57.50
2018-03-27T01:59:26.823Z,57.50
2018-03-27T02:01:54.319Z,57.70
2018-03-27T02:04:21.824Z,57.80
2018-03-27T02:06:49.330Z,57.70
2018-03-27T02:09:17.570Z,57.80
2018-03-27T02:11:50.773Z,57.80
2018-03-27T02:14:23.803Z,57.80
2018-03-27T02:16:56.821Z,57.90
2018-03-27T02:19:30.657Z,57.90
2018-03-27T02:21:57.661Z,57.90
2018-03-27T02:24:25.572Z,57.90
2018-03-27T02:26:53.050Z,57.90
2018-03-27T02:29:21.331Z,57.90
2018-03-27T02:31:49.659Z,57.90
2018-03-27T02:34:17.138Z,58.00
2018-03-27T02:36:44.645Z,58.00
2018-03-27T02:39:12.162Z,58.00
2018-03-27T02:41:39.671Z,58.00
2018-03-27T02:44:07.162Z,58.00
2018-03-27T02:46:34.682Z,58.10
2018-03-27T02:49:02.166Z,58.10
2018-03-27T02:51:29.744Z,58.00
2018-03-27T02:53:57.235Z,58.10
2018-03-27T02:56:24.715Z,58.20
2018-03-27T02:58:52.254Z,58.20
2018-03-27T03:01:19.762Z,58.20
2018-03-27T03:03:47.239Z,58.20
2018-03-27T03:06:14.731Z,58.20
2018-03-27T03:08:42.241Z,58.30
2018-03-27T03:11:09.741Z,58.30
2018-03-27T03:13:37.226Z,58.30
2018-03-27T03:16:04.705Z,58.30
2018-03-27T03:18:32.986Z,58.30
2018-03-27T03:21:01.226Z,58.30
2018-03-27T03:23:28.723Z,58.20
2018-03-27T03:25:56.219Z,58.30
2018-03-27T03:28:24.458Z,58.30
2018-03-27T03:30:51.959Z,58.30
2018-03-27T03:33:19.474Z,58.40
2018-03-27T03:35:46.981Z,58.40
2018-03-27T03:38:14.475Z,58.50
2018-03-27T03:40:42.738Z,58.40
2018-03-27T03:43:10.326Z,58.40
2018-03-27T03:45:38.596Z,58.40
2018-03-27T03:48:06.081Z,58.40
2018-03-27T03:50:33.592Z,58.30
2018-03-27T03:53:01.163Z,58.30
2018-03-27T03:55:28.594Z,58.30
2018-03-27T03:57:56.058Z,58.30
2018-03-27T04:00:23.545Z,58.90
2018-03-27T04:02:51.834Z,58.40
2018-03-27T04:05:19.378Z,58.30
2018-03-27T04:07:46.890Z,57.90
2018-03-27T04:10:15.194Z,58.30
2018-03-27T04:12:43.458Z,58.30
2018-03-27T04:15:11.743Z,58.80
2018-03-27T04:17:39.215Z,58.40
2018-03-27T04:20:06.702Z,58.30
2018-03-27T04:22:34.955Z,58.60
2018-03-27T04:25:02.433Z,58.50
2018-03-27T04:27:29.970Z,58.50
2018-03-27T04:29:57.484Z,58.50
2018-03-27T04:32:24.958Z,58.60
2018-03-27T04:34:52.451Z,58.40
2018-03-27T04:37:20.702Z,58.60
2018-03-27T04:39:48.190Z,58.50
2018-03-27T04:42:16.436Z,58.70
2018-03-27T04:44:43.927Z,58.60
2018-03-27T04:47:11.411Z,59.20
2018-03-27T04:49:38.909Z,58.60
2018-03-27T04:52:06.395Z,58.70
2018-03-27T04:54:33.870Z,58.60
2018-03-27T04:57:01.410Z,58.50
2018-03-27T04:59:29.686Z,58.60
2018-03-27T05:01:57.166Z,58.60
2018-03-27T05:04:25.410Z,58.70
2018-03-27T05:06:52.890Z,58.70
2018-03-27T05:09:20.366Z,59.30
2018-03-27T05:11:48.688Z,58.80
2018-03-27T05:14:16.937Z,58.70
2018-03-27T05:16:44.548Z,58.70
2018-03-27T05:19:12.826Z,58.80
2018-03-27T05:21:40.371Z,58.70
2018-03-27T05:24:07.850Z,58.60
2018-03-27T05:26:35.346Z,58.70
2018-03-27T05:29:03.589Z,58.80
2018-03-27T05:31:31.086Z,58.70
2018-03-27T05:33:58.560Z,58.70
2018-03-27T05:36:26.078Z,58.60
2018-03-27T05:38:53.591Z,58.70
2018-03-27T05:41:21.220Z,58.60
2018-03-27T05:43:48.698Z,58.70
2018-03-27T05:46:16.190Z,58.70
2018-03-27T05:48:43.747Z,58.60
2018-03-27T05:51:11.314Z,58.70
2018-03-27T05:53:38.789Z,58.70
2018-03-27T05:56:06.314Z,58.60
2018-03-27T05:58:33.782Z,58.50
2018-03-27T06:01:01.281Z,58.50
2018-03-27T06:03:28.759Z,58.50
2018-03-27T06:05:56.256Z,58.40
2018-03-27T06:08:23.795Z,58.30
2018-03-27T06:10:51.283Z,58.20
2018-03-27T06:13:18.839Z,58.70
2018-03-27T06:15:47.114Z,58.20
2018-03-27T06:18:14.634Z,58.10
2018-03-27T06:20:42.870Z,58.10
2018-03-27T06:23:10.381Z,58.10
2018-03-27T06:25:37.866Z,58.00
2018-03-27T06:28:05.338Z,57.90
2018-03-27T06:30:32.829Z,58.00
2018-03-27T06:33:00.341Z,57.90
2018-03-27T06:35:27.841Z,58.00
2018-03-27T06:37:55.378Z,58.00
2018-03-27T06:40:22.865Z,57.90
2018-03-27T06:42:50.374Z,57.80
2018-03-27T06:45:17.861Z,57.70
2018-03-27T06:50:36.112Z,57.60
2018-03-27T06:53:03.578Z,57.50
2018-03-27T06:55:31.025Z,57.40
2018-03-27T06:57:58.490Z,57.40
2018-03-27T07:00:25.933Z,57.30
2018-03-27T07:02:54.182Z,57.10
2018-03-27T07:05:21.643Z,57.10
2018-03-27T07:07:49.089Z,56.90
2018-03-27T07:10:16.568Z,56.80
2018-03-27T07:12:44.757Z,56.50
2018-03-27T07:15:12.211Z,56.50
2018-03-27T07:17:39.703Z,56.60
2018-03-27T07:20:07.120Z,56.50
2018-03-27T07:22:34.573Z,56.50
2018-03-27T07:25:02.031Z,56.60
2018-03-27T07:27:29.498Z,56.40
2018-03-27T07:29:56.989Z,56.20
2018-03-27T07:32:24.488Z,56.20
2018-03-27T07:34:51.901Z,56.20
2018-03-27T07:37:19.367Z,56.20
2018-03-27T07:39:46.824Z,56.30
2018-03-27T07:42:14.283Z,56.50
2018-03-27T07:44:41.761Z,56.30
2018-03-27T07:47:09.218Z,56.40
2018-03-27T07:49:36.683Z,56.30
2018-03-27T07:52:04.876Z,56.30
2018-03-27T07:54:32.345Z,56.30
2018-03-27T07:56:59.793Z,56.10
2018-03-27T07:59:28.014Z,56.10
2018-03-27T08:01:55.474Z,56.10
2018-03-27T08:04:22.933Z,56.20
2018-03-27T08:06:50.369Z,56.40
2018-03-27T08:09:17.821Z,56.30
2018-03-27T08:11:45.257Z,56.30
2018-03-27T08:14:12.719Z,56.40
2018-03-27T08:16:40.193Z,56.40
2018-03-27T08:19:07.633Z,56.40
2018-03-27T08:21:35.853Z,56.40
2018-03-27T08:24:03.394Z,56.40
2018-03-27T08:26:30.785Z,56.20
2018-03-27T08:28:58.242Z,56.20
2018-03-27T08:31:25.697Z,56.00
2018-03-27T08:33:53.913Z,55.90
2018-03-27T08:36:21.432Z,55.90
2018-03-27T08:38:48.847Z,56.00
2018-03-27T08:41:16.294Z,56.10
2018-03-27T08:43:44.524Z,55.70
2018-03-27T08:46:12.005Z,55.60
2018-03-27T08:48:39.507Z,55.30
2018-03-27T08:51:06.941Z,54.90
2018-03-27T08:53:34.388Z,54.50
2018-03-27T08:56:01.857Z,54.00
2018-03-27T08:58:29.306Z,53.60
2018-03-27T09:00:57.541Z,53.20
2018-03-27T09:03:25.004Z,53.20
2018-03-27T09:05:52.479Z,52.90
2018-03-27T09:08:19.925Z,52.80
2018-03-27T09:10:47.396Z,52.60
2018-03-27T09:13:14.859Z,52.20
2018-03-27T09:15:42.317Z,52.20
2018-03-27T09:18:10.572Z,51.80
2018-03-27T09:20:38.041Z,51.70
2018-03-27T09:23:05.513Z,51.50
2018-03-27T09:25:32.957Z,51.20
2018-03-27T09:28:00.405Z,50.90
2018-03-27T09:30:27.873Z,50.60
2018-03-27T09:32:55.322Z,50.10
2018-03-27T09:35:23.562Z,49.40
2018-03-27T09:37:51.012Z,49.30
2018-03-27T09:40:18.524Z,49.10
2018-03-27T09:42:45.940Z,48.70
2018-03-27T09:45:13.404Z,48.40
2018-03-27T09:47:40.877Z,48.10
2018-03-27T09:50:08.337Z,47.90
2018-03-27T09:52:35.797Z,47.50
2018-03-27T09:55:03.249Z,47.20
2018-03-27T09:57:31.486Z,46.50
2018-03-27T09:59:58.942Z,46.50
2018-03-27T10:02:26.414Z,46.10
2018-03-27T10:04:53.877Z,46.10
2018-03-27T10:07:21.358Z,45.70
2018-03-27T10:09:48.812Z,45.60
2018-03-27T10:12:16.278Z,45.50
2018-03-27T10:14:43.733Z,45.10
2018-03-27T10:17:12.009Z,44.90
2018-03-27T10:19:39.466Z,44.90
2018-03-27T10:22:06.979Z,44.30
2018-03-27T10:24:35.224Z,44.00
2018-03-27T10:27:02.725Z,43.90
2018-03-27T10:29:30.963Z,43.20
2018-03-27T10:31:58.466Z,43.10
2018-03-27T10:34:25.969Z,42.90
2018-03-27T10:36:53.483Z,42.10
2018-03-27T10:39:20.969Z,41.60
2018-03-27T10:41:48.466Z,41.10
2018-03-27T10:44:16.722Z,41.00
2018-03-27T10:46:44.276Z,40.90
2018-03-27T10:49:11.787Z,40.90
2018-03-27T10:51:40.387Z,40.70
2018-03-27T10:54:08.650Z,40.30
2018-03-27T10:56:36.135Z,40.20
2018-03-27T10:59:04.412Z,39.20
2018-03-27T11:01:31.946Z,39.10
2018-03-27T11:03:59.508Z,39.20
2018-03-27T11:06:26.965Z,38.90
2018-03-27T11:08:54.467Z,38.70
2018-03-27T11:11:21.941Z,38.50
2018-03-27T11:13:49.447Z,38.10
2018-03-27T11:16:16.955Z,37.50
2018-03-27T11:18:44.453Z,36.90
2018-03-27T11:21:11.934Z,36.10
2018-03-27T11:23:39.486Z,35.50
2018-03-27T11:26:06.970Z,34.20
2018-03-27T11:28:34.491Z,32.90
2018-03-27T11:31:02.728Z,29.10
2018-03-27T11:33:30.263Z,29.00
2018-03-27T11:35:57.747Z,27.40
2018-03-27T11:38:25.267Z,27.90
2018-03-27T11:40:52.746Z,26.30
2018-03-27T11:43:21.022Z,29.70
2018-03-27T11:45:48.529Z,29.70
2018-03-27T11:48:16.066Z,31.80
2018-03-27T11:50:43.510Z,33.60
2018-03-27T11:53:11.007Z,34.90
2018-03-27T11:55:38.515Z,35.80
2018-03-27T11:58:06.046Z,36.60
2018-03-27T12:00:33.586Z,36.80
2018-03-27T12:03:01.858Z,37.90
2018-03-27T12:05:29.351Z,37.80
2018-03-27T12:07:56.842Z,37.80
2018-03-27T12:10:24.361Z,35.60
2018-03-27T12:12:51.842Z,34.30
2018-03-27T12:15:19.421Z,34.10
2018-03-27T12:17:46.875Z,33.50
2018-03-27T12:20:14.365Z,32.00
2018-03-27T12:22:41.843Z,32.00
2018-03-27T12:25:10.158Z,33.20
2018-03-27T12:27:37.667Z,33.20
2018-03-27T12:30:05.163Z,34.40
2018-03-27T12:32:32.638Z,34.90
2018-03-27T12:35:00.135Z,36.10
2018-03-27T12:37:27.639Z,36.30
2018-03-27T12:39:55.151Z,36.60
2018-03-27T12:42:22.673Z,36.80
2018-03-27T12:44:50.138Z,36.50
2018-03-27T12:47:17.618Z,37.10
2018-03-27T12:49:45.874Z,39.30
2018-03-27T12:52:13.354Z,38.60
2018-03-27T12:54:40.870Z,39.20
2018-03-27T12:57:08.383Z,39.50
2018-03-27T12:59:35.904Z,39.50
2018-03-27T13:02:04.164Z,39.80
2018-03-27T13:04:32.437Z,39.50
2018-03-27T13:06:59.918Z,39.40
2018-03-27T13:09:27.412Z,40.00
2018-03-27T13:11:55.682Z,40.60
2018-03-27T13:14:23.158Z,40.60
2018-03-27T13:16:51.438Z,40.90
2018-03-27T13:19:18.929Z,40.90
2018-03-27T13:21:47.187Z,40.90
2018-03-27T13:24:14.666Z,40.90
2018-03-27T13:26:43.027Z,41.10
2018-03-27T13:29:10.509Z,41.10
2018-03-27T13:31:38.025Z,41.40
2018-03-27T13:34:05.488Z,41.50
2018-03-27T13:36:33.758Z,41.60
2018-03-27T13:39:01.299Z,41.60
2018-03-27T13:41:29.529Z,41.80
2018-03-27T13:43:57.781Z,41.70
2018-03-27T13:46:25.279Z,41.50
2018-03-27T13:48:52.747Z,41.40
2018-03-27T13:51:20.276Z,41.30
2018-03-27T13:53:47.793Z,41.00
2018-03-27T13:56:15.327Z,40.80
2018-03-27T13:58:42.822Z,41.00
2018-03-27T14:01:10.332Z,39.90
2018-03-27T14:03:37.851Z,38.10
2018-03-27T14:06:05.387Z,36.80
2018-03-27T14:08:32.909Z,37.00
2018-03-27T14:11:00.397Z,36.70
2018-03-27T14:13:28.650Z,36.80
2018-03-27T14:15:56.135Z,36.70
2018-03-27T14:18:24.448Z,36.40
2018-03-27T14:20:52.702Z,37.40
2018-03-27T14:23:20.182Z,37.30
2018-03-27T14:25:47.686Z,37.40
2018-03-27T14:28:15.931Z,38.60
2018-03-27T14:30:43.410Z,38.60
2018-03-27T14:33:11.469Z,38.90
2018-03-27T14:35:38.956Z,38.90
2018-03-27T14:38:06.428Z,39.00
2018-03-27T14:40:33.910Z,39.20
2018-03-27T14:43:01.392Z,39.20
2018-03-27T14:45:29.631Z,39.60
2018-03-27T14:47:57.114Z,39.50
2018-03-27T14:50:24.585Z,40.00
2018-03-27T14:52:52.073Z,40.00
2018-03-27T14:55:19.558Z,40.20
2018-03-27T14:57:47.826Z,40.30
2018-03-27T15:00:15.313Z,40.30
2018-03-27T15:02:43.587Z,40.30
2018-03-27T15:05:11.853Z,40.60
2018-03-27T15:07:39.335Z,40.60
2018-03-27T15:10:06.956Z,40.70
2018-03-27T15:12:34.407Z,40.50
2018-03-27T15:15:02.670Z,40.70
2018-03-27T15:17:30.208Z,40.60
2018-03-27T15:19:57.722Z,40.90
2018-03-27T15:22:25.216Z,40.90
2018-03-27T15:24:53.467Z,41.10
2018-03-27T15:27:20.955Z,41.00
2018-03-27T15:29:48.464Z,41.20
2018-03-27T15:32:15.973Z,41.10
2018-03-27T15:34:43.490Z,41.30
2018-03-27T15:37:11.746Z,41.30
2018-03-27T15:39:39.299Z,41.30
2018-03-27T15:42:07.482Z,41.60
2018-03-27T15:44:35.011Z,41.60
2018-03-27T15:47:03.259Z,41.60
2018-03-27T15:49:30.766Z,41.50
2018-03-27T15:51:59.029Z,41.20
2018-03-27T15:54:26.750Z,41.20
2018-03-27T15:56:54.222Z,41.20
2018-03-27T15:59:21.727Z,41.40
2018-03-27T16:01:49.211Z,41.40
2018-03-27T16:04:16.694Z,41.30
2018-03-27T16:06:44.222Z,41.20
2018-03-27T16:09:11.711Z,41.20
2018-03-27T16:11:39.186Z,41.40
2018-03-27T16:14:07.500Z,41.40
2018-03-27T16:16:35.747Z,41.60
2018-03-27T16:19:03.283Z,41.50
2018-03-27T16:21:30.894Z,42.10
2018-03-27T16:23:58.385Z,41.50
2018-03-27T16:26:25.874Z,41.70
2018-03-27T16:28:54.150Z,41.70
2018-03-27T16:31:21.658Z,41.70
2018-03-27T16:33:49.138Z,41.90
2018-03-27T16:36:16.626Z,42.10
2018-03-27T16:38:44.114Z,42.40
2018-03-27T16:41:11.609Z,42.40
2018-03-27T16:43:39.868Z,42.50
2018-03-27T16:46:07.355Z,42.50
2018-03-27T16:48:34.846Z,42.60
2018-03-27T16:51:03.092Z,42.80
2018-03-27T16:53:30.566Z,42.80
2018-03-27T16:55:58.054Z,43.00
2018-03-27T16:58:25.550Z,43.00
2018-03-27T17:00:53.803Z,43.20
2018-03-27T17:03:21.285Z,43.10
2018-03-27T17:05:48.770Z,43.90
2018-03-27T17:08:16.258Z,43.30
2018-03-27T17:10:43.770Z,43.40
2018-03-27T17:13:12.202Z,43.40
2018-03-27T17:15:40.482Z,43.70
2018-03-27T17:18:08.734Z,43.60
2018-03-27T17:20:36.250Z,43.60
2018-03-27T17:23:03.734Z,43.60
2018-03-27T17:25:31.995Z,44.00
2018-03-27T17:27:59.478Z,44.00
2018-03-27T17:30:26.971Z,44.00
2018-03-27T17:32:54.466Z,44.00
2018-03-27T17:35:21.972Z,44.20
2018-03-27T17:37:49.455Z,44.20
2018-03-27T17:40:17.728Z,44.50
2018-03-27T17:42:45.218Z,44.40
2018-03-27T17:45:13.540Z,44.60
2018-03-27T17:47:41.031Z,44.50
2018-03-27T17:50:08.517Z,44.60
2018-03-27T17:52:36.013Z,44.60
2018-03-27T17:55:03.503Z,44.70
2018-03-27T17:57:31.773Z,44.80
2018-03-27T17:59:59.267Z,45.30
2018-03-27T18:02:27.522Z,44.90
2018-03-27T18:04:55.042Z,44.90
2018-03-27T18:07:22.591Z,45.00
2018-03-27T18:09:50.832Z,45.00
2018-03-27T18:12:18.338Z,45.00
2018-03-27T18:14:45.866Z,45.00
2018-03-27T18:17:13.353Z,45.50
2018-03-27T18:19:40.882Z,45.00
2018-03-27T18:22:08.380Z,45.20
2018-03-27T18:24:35.948Z,45.20
2018-03-27T18:27:04.128Z,45.00
2018-03-27T18:29:31.610Z,45.00
2018-03-27T18:31:59.119Z,44.60
2018-03-27T18:34:27.377Z,44.60
2018-03-27T18:36:54.875Z,44.60
2018-03-27T18:39:22.376Z,44.60
2018-03-27T18:41:49.875Z,44.60
2018-03-27T18:44:17.397Z,44.70
2018-03-27T18:46:45.700Z,44.80
2018-03-27T18:49:13.954Z,44.70
2018-03-27T18:51:41.459Z,44.70
2018-03-27T18:54:09.750Z,44.90
2018-03-27T18:56:37.236Z,44.80
2018-03-27T18:59:04.742Z,45.00
2018-03-27T19:01:32.210Z,45.00
2018-03-27T19:03:59.703Z,45.10
2018-03-27T19:06:27.189Z,45.10
2018-03-27T19:08:55.459Z,45.30
2018-03-27T19:11:22.950Z,45.30
2018-03-27T19:13:51.242Z,45.20
2018-03-27T19:16:18.782Z,45.20
2018-03-27T19:18:46.255Z,45.30
2018-03-27T19:21:13.765Z,45.40
2018-03-27T19:23:41.292Z,45.40
2018-03-27T19:26:08.824Z,45.40
2018-03-27T19:28:36.310Z,45.40
2018-03-27T19:31:03.925Z,45.40
2018-03-27T19:33:32.255Z,45.50
2018-03-27T19:35:59.775Z,45.50
2018-03-27T19:38:27.295Z,45.60
2018-03-27T19:40:54.828Z,45.60
2018-03-27T19:43:24.441Z,45.80
2018-03-27T19:45:52.846Z,45.90
2018-03-27T19:48:21.171Z,45.90
2018-03-27T19:50:48.711Z,45.90
2018-03-27T19:53:16.981Z,46.20
2018-03-27T19:55:44.487Z,46.20
2018-03-27T19:58:12.000Z,46.30
2018-03-27T20:00:39.498Z,46.30
2018-03-27T20:03:06.990Z,46.30
2018-03-27T20:05:35.265Z,46.60
2018-03-27T20:08:03.507Z,46.60
2018-03-27T20:10:31.064Z,46.60
2018-03-27T20:12:58.666Z,46.70
2018-03-27T20:15:26.164Z,48.10
2018-03-27T20:17:53.681Z,47.60
2018-03-27T20:20:21.533Z,47.60
2018-03-27T20:22:49.010Z,47.70
2018-03-27T20:25:17.267Z,47.80
2018-03-27T20:27:44.835Z,47.80
2018-03-27T20:30:12.344Z,48.00
2018-03-27T20:32:39.919Z,48.10
2018-03-27T20:35:07.487Z,48.00
2018-03-27T20:37:34.978Z,48.20
2018-03-27T20:40:02.550Z,48.20
2018-03-27T20:42:30.090Z,48.30
2018-03-27T20:44:57.619Z,48.40
2018-03-27T20:47:25.188Z,48.40
2018-03-27T20:49:52.672Z,48.60
2018-03-27T20:52:20.183Z,48.70
2018-03-27T20:54:48.453Z,48.70
2018-03-27T20:57:16.719Z,48.70
2018-03-27T20:59:44.213Z,48.60
2018-03-27T21:02:12.471Z,48.90
2018-03-27T21:04:40.010Z,48.90
2018-03-27T21:07:07.522Z,49.00
2018-03-27T21:09:35.103Z,49.00
2018-03-27T21:12:02.599Z,49.10
2018-03-27T21:14:30.939Z,49.10
2018-03-27T21:16:58.457Z,49.20
2018-03-27T21:19:26.760Z,49.30
2018-03-27T21:21:54.268Z,49.30
2018-03-27T21:24:21.754Z,49.40
2018-03-27T21:26:49.241Z,49.40
2018-03-27T21:29:17.498Z,49.50
2018-03-27T21:31:44.982Z,49.50
2018-03-27T21:34:12.482Z,49.50
2018-03-27T21:36:40.887Z,49.60
2018-03-27T21:39:08.463Z,49.60
2018-03-27T21:41:36.019Z,49.60
2018-03-27T21:44:05.073Z,49.70
2018-03-27T21:46:33.367Z,49.80
2018-03-27T21:49:00.875Z,49.80
2018-03-27T21:51:29.175Z,49.90
2018-03-27T21:53:57.459Z,50.00
2018-03-27T21:56:24.982Z,50.00
2018-03-27T21:58:52.526Z,50.00
2018-03-27T22:01:20.099Z,50.00
2018-03-27T22:03:47.617Z,50.00
2018-03-27T22:06:15.236Z,50.00
2018-03-27T22:08:42.772Z,50.00
2018-03-27T22:11:10.285Z,50.20
2018-03-27T22:13:37.783Z,50.10
2018-03-27T22:16:05.324Z,50.30
2018-03-27T22:18:32.826Z,50.40
2018-03-27T22:21:00.322Z,50.40
2018-03-27T22:23:27.859Z,50.20
2018-03-27T22:25:55.351Z,50.30
2018-03-27T22:28:23.738Z,50.30
2018-03-27T22:30:51.480Z,50.30
2018-03-27T22:33:18.967Z,50.40
2018-03-27T22:35:46.441Z,50.50
2018-03-27T22:38:13.914Z,50.40
2018-03-27T22:40:41.390Z,50.40
2018-03-27T22:43:09.672Z,50.60
2018-03-27T22:45:37.196Z,50.50
2018-03-27T22:48:05.453Z,50.50
2018-03-27T22:50:32.981Z,50.50
2018-03-27T22:53:00.522Z,50.60
2018-03-27T22:55:28.045Z,50.60
2018-03-27T22:57:55.533Z,50.70
2018-03-27T23:00:23.139Z,50.70
2018-03-27T23:02:51.413Z,50.80
2018-03-27T23:05:18.886Z,50.80
2018-03-27T23:07:46.411Z,50.80
2018-03-27T23:10:14.034Z,50.70
2018-03-27T23:12:42.294Z,50.70
2018-03-27T23:15:09.828Z,50.70
2018-03-27T23:17:37.463Z,50.70
2018-03-27T23:20:05.006Z,50.70
2018-03-27T23:22:32.531Z,50.80
2018-03-27T23:25:00.047Z,50.80
2018-03-27T23:27:27.560Z,50.80
2018-03-27T23:32:28.395Z,50.80
2018-03-27T23:34:56.067Z,50.80
2018-03-27T23:37:23.613Z,50.90
2018-03-27T23:39:51.126Z,50.90
2018-03-27T23:42:18.647Z,50.90
2018-03-27T23:44:46.134Z,51.00
2018-03-27T23:47:13.650Z,51.10
2018-03-27T23:49:41.130Z,50.90
2018-03-27T23:52:08.724Z,51.00
2018-03-27T23:54:36.246Z,51.00
2018-03-27T23:57:03.775Z,51.20
2018-03-27T23:59:31.355Z,51.20
